sensor_id;sensor_type;location;lat;lon;timestamp;P1;durP1;ratioP1;P2;durP2;ratioP2
29878;SDS011;16752;53.364;-1.488;2023-11-21T00:02:23;1.88;;;0.80;;
29878;SDS011;16752;53.364;-1.488;2023-11-21T00:05:11;1.02;;;0.77;;
29878;SDS011;16752;53.364;-1.488;2023-11-21T00:07:57;3.13;;;1.10;;
29878;SDS011;16752;53.364;-1.488;2023-11-21T00:10:41;5.28;;;0.80;;
29878;SDS011;16752;53.364;-1.488;2023-11-21T00:13:25;2.38;;;0.70;;
29878;SDS011;16752;53.364;-1.488;2023-11-21T00:16:10;1.10;;;0.80;;
29878;SDS011;16752;53.364;-1.488;2023-11-21T00:18:54;2.80;;;0.50;;
29878;SDS011;16752;53.364;-1.488;2023-11-21T00:21:37;0.80;;;0.80;;
29878;SDS011;16752;53.364;-1.488;2023-11-21T00:24:22;0.82;;;0.50;;
29878;SDS011;16752;53.364;-1.488;2023-11-21T00:27:05;0.98;;;0.73;;
29878;SDS011;16752;53.364;-1.488;2023-11-21T00:29:49;3.03;;;0.60;;
29878;SDS011;16752;53.364;-1.488;2023-11-21T00:32:35;2.17;;;0.65;;
29878;SDS011;16752;53.364;-1.488;2023-11-21T00:35:19;1.92;;;0.50;;
29878;SDS011;16752;53.364;-1.488;2023-11-21T00:38:03;3.30;;;0.82;;
29878;SDS011;16752;53.364;-1.488;2023-11-21T00:40:47;0.55;;;0.50;;
29878;SDS011;16752;53.364;-1.488;2023-11-21T00:43:31;2.20;;;0.70;;
29878;SDS011;16752;53.364;-1.488;2023-11-21T00:46:15;3.33;;;0.90;;
29878;SDS011;16752;53.364;-1.488;2023-11-21T00:52:08;1.02;;;0.70;;
29878;SDS011;16752;53.364;-1.488;2023-11-21T00:54:52;1.02;;;0.68;;
29878;SDS011;16752;53.364;-1.488;2023-11-21T00:57:37;2.33;;;0.60;;
29878;SDS011;16752;53.364;-1.488;2023-11-21T01:00:21;1.88;;;0.65;;
29878;SDS011;16752;53.364;-1.488;2023-11-21T01:03:05;0.93;;;0.50;;
29878;SDS011;16752;53.364;-1.488;2023-11-21T01:05:49;2.38;;;0.63;;
29878;SDS011;16752;53.364;-1.488;2023-11-21T01:08:34;3.10;;;0.80;;
29878;SDS011;16752;53.364;-1.488;2023-11-21T01:11:18;1.80;;;0.60;;
29878;SDS011;16752;53.364;-1.488;2023-11-21T01:14:02;2.63;;;0.50;;
29878;SDS011;16752;53.364;-1.488;2023-11-21T01:16:47;2.47;;;0.70;;
29878;SDS011;16752;53.364;-1.488;2023-11-21T01:19:32;6.10;;;0.82;;
29878;SDS011;16752;53.364;-1.488;2023-11-21T01:22:16;4.63;;;1.58;;
29878;SDS011;16752;53.364;-1.488;2023-11-21T01:25:02;3.90;;;1.55;;
29878;SDS011;16752;53.364;-1.488;2023-11-21T01:27:47;0.95;;;0.50;;
29878;SDS011;16752;53.364;-1.488;2023-11-21T01:30:31;3.22;;;0.73;;
29878;SDS011;16752;53.364;-1.488;2023-11-21T01:33:16;3.95;;;0.75;;
29878;SDS011;16752;53.364;-1.488;2023-11-21T01:36:00;2.92;;;0.85;;
29878;SDS011;16752;53.364;-1.488;2023-11-21T01:38:44;5.55;;;1.65;;
29878;SDS011;16752;53.364;-1.488;2023-11-21T01:41:28;1.83;;;0.47;;
29878;SDS011;16752;53.364;-1.488;2023-11-21T01:44:12;1.65;;;0.60;;
29878;SDS011;16752;53.364;-1.488;2023-11-21T01:46:56;5.55;;;0.93;;
29878;SDS011;16752;53.364;-1.488;2023-11-21T01:49:43;6.40;;;0.75;;
29878;SDS011;16752;53.364;-1.488;2023-11-21T01:52:28;2.90;;;0.65;;
29878;SDS011;16752;53.364;-1.488;2023-11-21T01:55:12;3.13;;;0.82;;
29878;SDS011;16752;53.364;-1.488;2023-11-21T01:58:00;2.08;;;0.82;;
29878;SDS011;16752;53.364;-1.488;2023-11-21T02:00:45;3.53;;;0.65;;
29878;SDS011;16752;53.364;-1.488;2023-11-21T02:03:29;3.40;;;1.40;;
29878;SDS011;16752;53.364;-1.488;2023-11-21T02:06:13;3.97;;;1.10;;
29878;SDS011;16752;53.364;-1.488;2023-11-21T02:08:57;1.23;;;0.55;;
29878;SDS011;16752;53.364;-1.488;2023-11-21T02:11:40;2.00;;;0.80;;
29878;SDS011;16752;53.364;-1.488;2023-11-21T02:14:25;3.40;;;1.00;;
29878;SDS011;16752;53.364;-1.488;2023-11-21T02:17:10;2.15;;;0.65;;
29878;SDS011;16752;53.364;-1.488;2023-11-21T02:19:54;2.00;;;0.70;;
29878;SDS011;16752;53.364;-1.488;2023-11-21T02:22:38;1.80;;;0.75;;
29878;SDS011;16752;53.364;-1.488;2023-11-21T02:25:25;3.00;;;0.70;;
29878;SDS011;16752;53.364;-1.488;2023-11-21T02:28:12;2.25;;;0.63;;
29878;SDS011;16752;53.364;-1.488;2023-11-21T02:30:59;1.80;;;0.60;;
29878;SDS011;16752;53.364;-1.488;2023-11-21T02:33:43;1.65;;;1.25;;
29878;SDS011;16752;53.364;-1.488;2023-11-21T02:36:27;4.55;;;0.65;;
29878;SDS011;16752;53.364;-1.488;2023-11-21T02:39:11;3.13;;;0.88;;
29878;SDS011;16752;53.364;-1.488;2023-11-21T02:41:55;4.40;;;1.00;;
29878;SDS011;16752;53.364;-1.488;2023-11-21T02:44:39;2.60;;;0.85;;
29878;SDS011;16752;53.364;-1.488;2023-11-21T02:47:23;0.80;;;0.45;;
29878;SDS011;16752;53.364;-1.488;2023-11-21T02:50:07;3.13;;;0.45;;
29878;SDS011;16752;53.364;-1.488;2023-11-21T02:52:52;1.45;;;0.60;;
29878;SDS011;16752;53.364;-1.488;2023-11-21T02:55:36;1.33;;;0.77;;
29878;SDS011;16752;53.364;-1.488;2023-11-21T02:58:20;1.23;;;0.40;;
29878;SDS011;16752;53.364;-1.488;2023-11-21T03:01:05;1.98;;;0.55;;
29878;SDS011;16752;53.364;-1.488;2023-11-21T03:03:50;2.72;;;0.70;;
29878;SDS011;16752;53.364;-1.488;2023-11-21T03:06:35;1.08;;;0.50;;
29878;SDS011;16752;53.364;-1.488;2023-11-21T03:09:19;0.60;;;0.50;;
29878;SDS011;16752;53.364;-1.488;2023-11-21T03:12:03;0.85;;;0.55;;
29878;SDS011;16752;53.364;-1.488;2023-11-21T03:14:47;1.48;;;0.73;;
29878;SDS011;16752;53.364;-1.488;2023-11-21T03:17:31;0.40;;;0.40;;
29878;SDS011;16752;53.364;-1.488;2023-11-21T03:20:17;2.47;;;0.70;;
29878;SDS011;16752;53.364;-1.488;2023-11-21T03:23:01;4.03;;;0.93;;
29878;SDS011;16752;53.364;-1.488;2023-11-21T03:25:45;1.38;;;0.32;;
29878;SDS011;16752;53.364;-1.488;2023-11-21T03:28:29;2.15;;;0.50;;
29878;SDS011;16752;53.364;-1.488;2023-11-21T03:31:13;3.15;;;0.70;;
29878;SDS011;16752;53.364;-1.488;2023-11-21T03:33:59;1.33;;;0.47;;
29878;SDS011;16752;53.364;-1.488;2023-11-21T03:36:43;1.75;;;0.40;;
29878;SDS011;16752;53.364;-1.488;2023-11-21T03:39:27;0.55;;;0.38;;
29878;SDS011;16752;53.364;-1.488;2023-11-21T03:42:13;1.10;;;0.30;;
29878;SDS011;16752;53.364;-1.488;2023-11-21T03:44:56;1.10;;;0.40;;
29878;SDS011;16752;53.364;-1.488;2023-11-21T03:47:41;1.75;;;0.50;;
29878;SDS011;16752;53.364;-1.488;2023-11-21T03:50:25;2.08;;;0.40;;
29878;SDS011;16752;53.364;-1.488;2023-11-21T03:53:09;0.40;;;0.30;;
29878;SDS011;16752;53.364;-1.488;2023-11-21T03:55:53;0.40;;;0.40;;
29878;SDS011;16752;53.364;-1.488;2023-11-21T03:58:37;3.92;;;0.60;;
29878;SDS011;16752;53.364;-1.488;2023-11-21T04:01:21;0.57;;;0.38;;
29878;SDS011;16752;53.364;-1.488;2023-11-21T04:04:06;0.40;;;0.40;;
29878;SDS011;16752;53.364;-1.488;2023-11-21T04:06:50;0.32;;;0.32;;
29878;SDS011;16752;53.364;-1.488;2023-11-21T04:09:35;0.40;;;0.40;;
29878;SDS011;16752;53.364;-1.488;2023-11-21T04:12:20;0.43;;;0.40;;
29878;SDS011;16752;53.364;-1.488;2023-11-21T04:15:04;0.30;;;0.30;;
29878;SDS011;16752;53.364;-1.488;2023-11-21T04:17:48;1.10;;;0.63;;
29878;SDS011;16752;53.364;-1.488;2023-11-21T04:20:32;3.70;;;0.47;;
29878;SDS011;16752;53.364;-1.488;2023-11-21T04:23:16;0.75;;;0.40;;
29878;SDS011;16752;53.364;-1.488;2023-11-21T04:26:00;0.32;;;0.32;;
29878;SDS011;16752;53.364;-1.488;2023-11-21T04:28:46;0.68;;;0.40;;
29878;SDS011;16752;53.364;-1.488;2023-11-21T04:31:30;0.63;;;0.40;;
29878;SDS011;16752;53.364;-1.488;2023-11-21T04:34:14;0.98;;;0.40;;
29878;SDS011;16752;53.364;-1.488;2023-11-21T04:36:58;0.60;;;0.50;;
29878;SDS011;16752;53.364;-1.488;2023-11-21T04:39:43;0.60;;;0.40;;
29878;SDS011;16752;53.364;-1.488;2023-11-21T04:42:27;0.73;;;0.40;;
29878;SDS011;16752;53.364;-1.488;2023-11-21T04:45:12;0.75;;;0.40;;
29878;SDS011;16752;53.364;-1.488;2023-11-21T04:47:56;0.47;;;0.38;;
29878;SDS011;16752;53.364;-1.488;2023-11-21T04:50:40;0.68;;;0.68;;
29878;SDS011;16752;53.364;-1.488;2023-11-21T04:53:24;1.10;;;0.50;;
29878;SDS011;16752;53.364;-1.488;2023-11-21T04:56:08;2.53;;;0.77;;
29878;SDS011;16752;53.364;-1.488;2023-11-21T04:58:53;1.52;;;0.38;;
29878;SDS011;16752;53.364;-1.488;2023-11-21T05:01:37;1.75;;;0.50;;
29878;SDS011;16752;53.364;-1.488;2023-11-21T05:04:22;1.90;;;0.60;;
29878;SDS011;16752;53.364;-1.488;2023-11-21T05:07:06;0.65;;;0.40;;
29878;SDS011;16752;53.364;-1.488;2023-11-21T05:09:50;2.53;;;0.57;;
29878;SDS011;16752;53.364;-1.488;2023-11-21T05:12:34;1.00;;;0.55;;
29878;SDS011;16752;53.364;-1.488;2023-11-21T05:15:24;2.08;;;0.88;;
29878;SDS011;16752;53.364;-1.488;2023-11-21T05:18:08;3.25;;;0.57;;
29878;SDS011;16752;53.364;-1.488;2023-11-21T05:20:52;2.15;;;0.57;;
29878;SDS011;16752;53.364;-1.488;2023-11-21T05:23:37;1.80;;;0.63;;
29878;SDS011;16752;53.364;-1.488;2023-11-21T05:26:21;1.55;;;1.05;;
29878;SDS011;16752;53.364;-1.488;2023-11-21T05:29:05;0.88;;;0.70;;
29878;SDS011;16752;53.364;-1.488;2023-11-21T05:31:49;1.25;;;0.85;;
29878;SDS011;16752;53.364;-1.488;2023-11-21T05:34:33;1.90;;;0.90;;
29878;SDS011;16752;53.364;-1.488;2023-11-21T05:37:17;1.85;;;0.68;;
29878;SDS011;16752;53.364;-1.488;2023-11-21T05:40:01;2.40;;;0.70;;
29878;SDS011;16752;53.364;-1.488;2023-11-21T05:42:50;6.67;;;0.80;;
29878;SDS011;16752;53.364;-1.488;2023-11-21T05:45:35;1.10;;;0.70;;
29878;SDS011;16752;53.364;-1.488;2023-11-21T05:48:19;1.65;;;0.82;;
29878;SDS011;16752;53.364;-1.488;2023-11-21T05:51:06;1.85;;;0.70;;
29878;SDS011;16752;53.364;-1.488;2023-11-21T05:53:50;0.77;;;0.70;;
29878;SDS011;16752;53.364;-1.488;2023-11-21T05:56:34;0.80;;;0.70;;
29878;SDS011;16752;53.364;-1.488;2023-11-21T05:59:18;1.83;;;0.85;;
29878;SDS011;16752;53.364;-1.488;2023-11-21T06:02:01;3.65;;;0.80;;
29878;SDS011;16752;53.364;-1.488;2023-11-21T06:04:45;2.03;;;0.77;;
29878;SDS011;16752;53.364;-1.488;2023-11-21T06:07:29;1.27;;;0.90;;
29878;SDS011;16752;53.364;-1.488;2023-11-21T06:10:13;2.30;;;0.77;;
29878;SDS011;16752;53.364;-1.488;2023-11-21T06:12:58;2.67;;;0.90;;
29878;SDS011;16752;53.364;-1.488;2023-11-21T06:15:42;0.70;;;0.70;;
29878;SDS011;16752;53.364;-1.488;2023-11-21T06:18:26;3.78;;;0.73;;
29878;SDS011;16752;53.364;-1.488;2023-11-21T06:21:10;0.73;;;0.68;;
29878;SDS011;16752;53.364;-1.488;2023-11-21T06:23:54;0.63;;;0.60;;
29878;SDS011;16752;53.364;-1.488;2023-11-21T06:26:40;1.10;;;1.05;;
29878;SDS011;16752;53.364;-1.488;2023-11-21T06:29:24;1.88;;;0.80;;
29878;SDS011;16752;53.364;-1.488;2023-11-21T06:32:08;3.63;;;0.90;;
29878;SDS011;16752;53.364;-1.488;2023-11-21T06:34:52;1.63;;;0.88;;
29878;SDS011;16752;53.364;-1.488;2023-11-21T06:37:38;3.35;;;0.88;;
29878;SDS011;16752;53.364;-1.488;2023-11-21T06:40:22;1.15;;;1.05;;
29878;SDS011;16752;53.364;-1.488;2023-11-21T06:43:05;4.22;;;0.95;;
29878;SDS011;16752;53.364;-1.488;2023-11-21T06:45:50;1.27;;;0.75;;
29878;SDS011;16752;53.364;-1.488;2023-11-21T06:48:34;3.45;;;1.10;;
29878;SDS011;16752;53.364;-1.488;2023-11-21T06:51:18;1.65;;;0.90;;
29878;SDS011;16752;53.364;-1.488;2023-11-21T06:54:02;2.80;;;0.77;;
29878;SDS011;16752;53.364;-1.488;2023-11-21T06:56:46;2.55;;;1.00;;
29878;SDS011;16752;53.364;-1.488;2023-11-21T06:59:31;3.78;;;1.38;;
29878;SDS011;16752;53.364;-1.488;2023-11-21T07:02:15;1.92;;;1.00;;
29878;SDS011;16752;53.364;-1.488;2023-11-21T07:05:02;4.20;;;2.00;;
29878;SDS011;16752;53.364;-1.488;2023-11-21T07:07:46;3.08;;;1.67;;
29878;SDS011;16752;53.364;-1.488;2023-11-21T07:10:30;4.90;;;1.13;;
29878;SDS011;16752;53.364;-1.488;2023-11-21T07:13:13;2.83;;;1.10;;
29878;SDS011;16752;53.364;-1.488;2023-11-21T07:15:58;7.95;;;1.40;;
29878;SDS011;16752;53.364;-1.488;2023-11-21T07:18:43;2.75;;;1.10;;
29878;SDS011;16752;53.364;-1.488;2023-11-21T07:21:26;5.70;;;1.27;;
29878;SDS011;16752;53.364;-1.488;2023-11-21T07:24:10;2.45;;;1.30;;
29878;SDS011;16752;53.364;-1.488;2023-11-21T07:26:54;3.42;;;1.30;;
29878;SDS011;16752;53.364;-1.488;2023-11-21T07:29:40;3.28;;;1.38;;
29878;SDS011;16752;53.364;-1.488;2023-11-21T07:32:24;3.83;;;1.05;;
29878;SDS011;16752;53.364;-1.488;2023-11-21T07:35:09;2.45;;;1.48;;
29878;SDS011;16752;53.364;-1.488;2023-11-21T07:37:53;3.05;;;1.65;;
29878;SDS011;16752;53.364;-1.488;2023-11-21T07:40:37;2.92;;;1.52;;
29878;SDS011;16752;53.364;-1.488;2023-11-21T07:43:21;5.35;;;1.20;;
29878;SDS011;16752;53.364;-1.488;2023-11-21T07:46:05;3.92;;;1.45;;
29878;SDS011;16752;53.364;-1.488;2023-11-21T07:48:50;4.50;;;1.30;;
29878;SDS011;16752;53.364;-1.488;2023-11-21T07:51:36;3.58;;;1.27;;
29878;SDS011;16752;53.364;-1.488;2023-11-21T07:54:20;5.43;;;1.63;;
29878;SDS011;16752;53.364;-1.488;2023-11-21T07:57:04;6.45;;;1.65;;
29878;SDS011;16752;53.364;-1.488;2023-11-21T07:59:49;5.43;;;1.48;;
29878;SDS011;16752;53.364;-1.488;2023-11-21T08:02:33;9.32;;;2.20;;
29878;SDS011;16752;53.364;-1.488;2023-11-21T08:05:18;2.75;;;1.30;;
29878;SDS011;16752;53.364;-1.488;2023-11-21T08:08:01;4.78;;;1.73;;
29878;SDS011;16752;53.364;-1.488;2023-11-21T08:10:45;4.60;;;1.70;;
29878;SDS011;16752;53.364;-1.488;2023-11-21T08:13:39;3.67;;;1.38;;
29878;SDS011;16752;53.364;-1.488;2023-11-21T08:16:23;5.88;;;1.75;;
29878;SDS011;16752;53.364;-1.488;2023-11-21T08:19:07;7.88;;;1.77;;
29878;SDS011;16752;53.364;-1.488;2023-11-21T08:21:53;6.63;;;2.03;;
29878;SDS011;16752;53.364;-1.488;2023-11-21T08:24:38;9.40;;;2.47;;
29878;SDS011;16752;53.364;-1.488;2023-11-21T08:27:22;5.85;;;1.65;;
29878;SDS011;16752;53.364;-1.488;2023-11-21T08:30:06;5.72;;;1.92;;
29878;SDS011;16752;53.364;-1.488;2023-11-21T08:32:51;10.52;;;2.35;;
29878;SDS011;16752;53.364;-1.488;2023-11-21T08:35:38;4.32;;;1.60;;
29878;SDS011;16752;53.364;-1.488;2023-11-21T08:38:22;8.60;;;1.92;;
29878;SDS011;16752;53.364;-1.488;2023-11-21T08:41:06;7.05;;;1.90;;
29878;SDS011;16752;53.364;-1.488;2023-11-21T08:43:51;5.38;;;1.90;;
29878;SDS011;16752;53.364;-1.488;2023-11-21T08:46:35;7.05;;;1.70;;
29878;SDS011;16752;53.364;-1.488;2023-11-21T08:49:20;12.02;;;2.28;;
29878;SDS011;16752;53.364;-1.488;2023-11-21T08:52:04;8.65;;;2.58;;
29878;SDS011;16752;53.364;-1.488;2023-11-21T08:54:49;6.55;;;2.63;;
29878;SDS011;16752;53.364;-1.488;2023-11-21T08:57:39;10.18;;;3.38;;
29878;SDS011;16752;53.364;-1.488;2023-11-21T09:00:24;16.13;;;3.78;;
29878;SDS011;16752;53.364;-1.488;2023-11-21T09:03:08;17.02;;;2.30;;
29878;SDS011;16752;53.364;-1.488;2023-11-21T09:05:52;8.07;;;1.88;;
29878;SDS011;16752;53.364;-1.488;2023-11-21T09:08:36;10.73;;;1.98;;
29878;SDS011;16752;53.364;-1.488;2023-11-21T09:11:21;10.98;;;2.20;;
29878;SDS011;16752;53.364;-1.488;2023-11-21T09:14:05;9.48;;;2.63;;
29878;SDS011;16752;53.364;-1.488;2023-11-21T09:16:49;5.53;;;2.35;;
29878;SDS011;16752;53.364;-1.488;2023-11-21T09:19:34;8.65;;;2.58;;
29878;SDS011;16752;53.364;-1.488;2023-11-21T09:22:18;7.78;;;1.90;;
29878;SDS011;16752;53.364;-1.488;2023-11-21T09:25:02;12.02;;;2.15;;
29878;SDS011;16752;53.364;-1.488;2023-11-21T09:27:48;4.63;;;2.45;;
29878;SDS011;16752;53.364;-1.488;2023-11-21T09:30:33;7.70;;;1.85;;
29878;SDS011;16752;53.364;-1.488;2023-11-21T09:33:20;11.18;;;2.00;;
29878;SDS011;16752;53.364;-1.488;2023-11-21T09:36:05;11.40;;;2.67;;
29878;SDS011;16752;53.364;-1.488;2023-11-21T09:38:54;11.27;;;2.30;;
29878;SDS011;16752;53.364;-1.488;2023-11-21T09:41:43;11.45;;;1.90;;
29878;SDS011;16752;53.364;-1.488;2023-11-21T09:44:35;8.25;;;2.15;;
29878;SDS011;16752;53.364;-1.488;2023-11-21T09:47:27;6.28;;;2.35;;
29878;SDS011;16752;53.364;-1.488;2023-11-21T09:50:12;10.57;;;2.15;;
29878;SDS011;16752;53.364;-1.488;2023-11-21T09:53:09;10.55;;;1.83;;
29878;SDS011;16752;53.364;-1.488;2023-11-21T09:55:58;4.88;;;2.00;;
29878;SDS011;16752;53.364;-1.488;2023-11-21T09:58:43;7.53;;;2.03;;
29878;SDS011;16752;53.364;-1.488;2023-11-21T10:01:27;10.60;;;2.05;;
29878;SDS011;16752;53.364;-1.488;2023-11-21T10:04:13;13.23;;;2.30;;
29878;SDS011;16752;53.364;-1.488;2023-11-21T10:06:57;6.75;;;2.15;;
29878;SDS011;16752;53.364;-1.488;2023-11-21T10:09:41;9.52;;;2.05;;
29878;SDS011;16752;53.364;-1.488;2023-11-21T10:12:25;6.70;;;1.70;;
29878;SDS011;16752;53.364;-1.488;2023-11-21T10:15:11;7.50;;;2.30;;
29878;SDS011;16752;53.364;-1.488;2023-11-21T10:18:00;6.97;;;2.00;;
29878;SDS011;16752;53.364;-1.488;2023-11-21T10:20:46;14.15;;;2.58;;
29878;SDS011;16752;53.364;-1.488;2023-11-21T10:23:35;7.28;;;1.70;;
29878;SDS011;16752;53.364;-1.488;2023-11-21T10:26:19;11.48;;;1.73;;
29878;SDS011;16752;53.364;-1.488;2023-11-21T10:29:07;6.80;;;1.17;;
29878;SDS011;16752;53.364;-1.488;2023-11-21T10:31:51;9.00;;;1.98;;
29878;SDS011;16752;53.364;-1.488;2023-11-21T10:34:38;5.78;;;2.28;;
29878;SDS011;16752;53.364;-1.488;2023-11-21T10:37:24;4.35;;;1.40;;
29878;SDS011;16752;53.364;-1.488;2023-11-21T10:40:10;11.00;;;2.25;;
29878;SDS011;16752;53.364;-1.488;2023-11-21T10:42:55;12.20;;;2.05;;
29878;SDS011;16752;53.364;-1.488;2023-11-21T10:45:49;7.88;;;1.58;;
29878;SDS011;16752;53.364;-1.488;2023-11-21T10:48:33;10.27;;;2.95;;
29878;SDS011;16752;53.364;-1.488;2023-11-21T10:51:18;6.05;;;2.33;;
29878;SDS011;16752;53.364;-1.488;2023-11-21T10:54:04;5.15;;;1.73;;
29878;SDS011;16752;53.364;-1.488;2023-11-21T10:56:53;6.35;;;1.98;;
29878;SDS011;16752;53.364;-1.488;2023-11-21T10:59:40;6.38;;;1.60;;
29878;SDS011;16752;53.364;-1.488;2023-11-21T11:02:25;8.98;;;2.47;;
29878;SDS011;16752;53.364;-1.488;2023-11-21T11:05:11;7.65;;;1.50;;
29878;SDS011;16752;53.364;-1.488;2023-11-21T11:07:58;8.73;;;1.67;;
29878;SDS011;16752;53.364;-1.488;2023-11-21T11:10:50;5.72;;;1.55;;
29878;SDS011;16752;53.364;-1.488;2023-11-21T11:13:34;7.95;;;1.52;;
29878;SDS011;16752;53.364;-1.488;2023-11-21T11:16:20;7.40;;;1.65;;
29878;SDS011;16752;53.364;-1.488;2023-11-21T11:19:06;8.82;;;1.83;;
29878;SDS011;16752;53.364;-1.488;2023-11-21T11:24:59;9.30;;;2.38;;
29878;SDS011;16752;53.364;-1.488;2023-11-21T11:28:04;7.03;;;1.80;;
29878;SDS011;16752;53.364;-1.488;2023-11-21T11:31:02;10.40;;;1.58;;
29878;SDS011;16752;53.364;-1.488;2023-11-21T11:34:15;4.10;;;1.30;;
29878;SDS011;16752;53.364;-1.488;2023-11-21T11:37:15;9.77;;;1.98;;
29878;SDS011;16752;53.364;-1.488;2023-11-21T11:39:59;4.38;;;1.30;;
29878;SDS011;16752;53.364;-1.488;2023-11-21T11:43:00;5.32;;;1.67;;
29878;SDS011;16752;53.364;-1.488;2023-11-21T11:45:48;5.15;;;1.77;;
29878;SDS011;16752;53.364;-1.488;2023-11-21T11:48:37;9.50;;;2.20;;
29878;SDS011;16752;53.364;-1.488;2023-11-21T11:51:23;3.83;;;1.80;;
29878;SDS011;16752;53.364;-1.488;2023-11-21T11:54:07;10.45;;;2.10;;
29878;SDS011;16752;53.364;-1.488;2023-11-21T11:56:51;4.43;;;1.27;;
29878;SDS011;16752;53.364;-1.488;2023-11-21T12:00:00;7.55;;;1.58;;
29878;SDS011;16752;53.364;-1.488;2023-11-21T12:03:04;6.00;;;1.52;;
29878;SDS011;16752;53.364;-1.488;2023-11-21T12:05:51;7.05;;;2.15;;
29878;SDS011;16752;53.364;-1.488;2023-11-21T12:08:41;4.72;;;1.50;;
29878;SDS011;16752;53.364;-1.488;2023-11-21T12:11:31;7.25;;;2.35;;
29878;SDS011;16752;53.364;-1.488;2023-11-21T12:14:16;7.40;;;1.47;;
29878;SDS011;16752;53.364;-1.488;2023-11-21T12:17:00;2.92;;;1.40;;
29878;SDS011;16752;53.364;-1.488;2023-11-21T12:19:44;4.88;;;1.23;;
29878;SDS011;16752;53.364;-1.488;2023-11-21T12:22:28;6.80;;;2.53;;
29878;SDS011;16752;53.364;-1.488;2023-11-21T12:25:16;7.38;;;1.40;;
29878;SDS011;16752;53.364;-1.488;2023-11-21T12:28:08;5.95;;;1.52;;
29878;SDS011;16752;53.364;-1.488;2023-11-21T12:30:52;4.18;;;1.38;;
29878;SDS011;16752;53.364;-1.488;2023-11-21T12:33:36;5.95;;;1.27;;
29878;SDS011;16752;53.364;-1.488;2023-11-21T12:36:21;7.00;;;1.17;;
29878;SDS011;16752;53.364;-1.488;2023-11-21T12:39:05;4.80;;;1.60;;
29878;SDS011;16752;53.364;-1.488;2023-11-21T12:41:52;5.18;;;1.85;;
29878;SDS011;16752;53.364;-1.488;2023-11-21T12:44:36;4.32;;;1.73;;
29878;SDS011;16752;53.364;-1.488;2023-11-21T12:47:24;3.03;;;1.23;;
29878;SDS011;16752;53.364;-1.488;2023-11-21T12:50:09;7.70;;;1.40;;
29878;SDS011;16752;53.364;-1.488;2023-11-21T12:55:43;4.85;;;1.77;;
29878;SDS011;16752;53.364;-1.488;2023-11-21T12:58:33;4.63;;;1.67;;
29878;SDS011;16752;53.364;-1.488;2023-11-21T13:01:19;4.50;;;1.40;;
29878;SDS011;16752;53.364;-1.488;2023-11-21T13:04:07;7.88;;;2.70;;
29878;SDS011;16752;53.364;-1.488;2023-11-21T13:06:51;7.70;;;1.77;;
29878;SDS011;16752;53.364;-1.488;2023-11-21T13:09:35;5.97;;;2.00;;
29878;SDS011;16752;53.364;-1.488;2023-11-21T13:12:23;11.68;;;3.20;;
29878;SDS011;16752;53.364;-1.488;2023-11-21T13:15:08;11.07;;;2.22;;
29878;SDS011;16752;53.364;-1.488;2023-11-21T13:17:53;5.70;;;1.83;;
29878;SDS011;16752;53.364;-1.488;2023-11-21T13:20:39;9.48;;;2.03;;
29878;SDS011;16752;53.364;-1.488;2023-11-21T13:23:24;6.82;;;1.67;;
29878;SDS011;16752;53.364;-1.488;2023-11-21T13:26:09;5.93;;;2.03;;
29878;SDS011;16752;53.364;-1.488;2023-11-21T13:28:53;7.13;;;1.52;;
29878;SDS011;16752;53.364;-1.488;2023-11-21T13:31:37;6.70;;;1.55;;
29878;SDS011;16752;53.364;-1.488;2023-11-21T13:34:22;3.72;;;1.52;;
29878;SDS011;16752;53.364;-1.488;2023-11-21T13:37:09;2.58;;;1.30;;
29878;SDS011;16752;53.364;-1.488;2023-11-21T13:39:53;4.38;;;1.45;;
29878;SDS011;16752;53.364;-1.488;2023-11-21T13:42:38;4.22;;;1.30;;
29878;SDS011;16752;53.364;-1.488;2023-11-21T13:45:22;3.70;;;1.33;;
29878;SDS011;16752;53.364;-1.488;2023-11-21T13:48:10;6.70;;;1.48;;
29878;SDS011;16752;53.364;-1.488;2023-11-21T13:50:57;7.65;;;1.73;;
29878;SDS011;16752;53.364;-1.488;2023-11-21T13:54:00;4.38;;;1.40;;
29878;SDS011;16752;53.364;-1.488;2023-11-21T13:56:44;5.80;;;1.70;;
29878;SDS011;16752;53.364;-1.488;2023-11-21T13:59:29;4.50;;;1.98;;
29878;SDS011;16752;53.364;-1.488;2023-11-21T14:02:15;2.55;;;1.17;;
29878;SDS011;16752;53.364;-1.488;2023-11-21T14:05:03;6.20;;;1.70;;
29878;SDS011;16752;53.364;-1.488;2023-11-21T14:07:52;4.35;;;1.30;;
29878;SDS011;16752;53.364;-1.488;2023-11-21T14:10:36;2.35;;;1.33;;
29878;SDS011;16752;53.364;-1.488;2023-11-21T14:13:23;4.97;;;1.75;;
29878;SDS011;16752;53.364;-1.488;2023-11-21T14:16:08;5.78;;;1.08;;
29878;SDS011;16752;53.364;-1.488;2023-11-21T14:18:53;2.13;;;1.15;;
29878;SDS011;16752;53.364;-1.488;2023-11-21T14:21:45;2.58;;;1.13;;
29878;SDS011;16752;53.364;-1.488;2023-11-21T14:24:30;3.03;;;1.75;;
29878;SDS011;16752;53.364;-1.488;2023-11-21T14:27:14;3.78;;;1.45;;
29878;SDS011;16752;53.364;-1.488;2023-11-21T14:29:58;4.97;;;1.20;;
29878;SDS011;16752;53.364;-1.488;2023-11-21T14:32:43;5.28;;;1.42;;
29878;SDS011;16752;53.364;-1.488;2023-11-21T14:35:27;3.97;;;1.40;;
29878;SDS011;16752;53.364;-1.488;2023-11-21T14:38:11;4.38;;;1.25;;
29878;SDS011;16752;53.364;-1.488;2023-11-21T14:40:57;5.28;;;1.52;;
29878;SDS011;16752;53.364;-1.488;2023-11-21T14:43:41;5.10;;;1.45;;
29878;SDS011;16752;53.364;-1.488;2023-11-21T14:46:26;2.15;;;1.05;;
29878;SDS011;16752;53.364;-1.488;2023-11-21T14:49:10;1.80;;;1.30;;
29878;SDS011;16752;53.364;-1.488;2023-11-21T14:52:03;3.92;;;1.88;;
29878;SDS011;16752;53.364;-1.488;2023-11-21T14:54:50;5.67;;;1.27;;
29878;SDS011;16752;53.364;-1.488;2023-11-21T14:57:44;1.40;;;1.20;;
29878;SDS011;16752;53.364;-1.488;2023-11-21T15:00:33;3.75;;;1.00;;
29878;SDS011;16752;53.364;-1.488;2023-11-21T15:03:18;5.00;;;1.10;;
29878;SDS011;16752;53.364;-1.488;2023-11-21T15:06:15;1.98;;;1.00;;
29878;SDS011;16752;53.364;-1.488;2023-11-21T15:09:13;2.67;;;0.90;;
29878;SDS011;16752;53.364;-1.488;2023-11-21T15:11:57;4.10;;;1.20;;
29878;SDS011;16752;53.364;-1.488;2023-11-21T15:14:59;4.05;;;1.08;;
29878;SDS011;16752;53.364;-1.488;2023-11-21T15:17:43;6.25;;;1.75;;
29878;SDS011;16752;53.364;-1.488;2023-11-21T15:20:27;4.20;;;1.35;;
29878;SDS011;16752;53.364;-1.488;2023-11-21T15:23:11;4.68;;;1.55;;
29878;SDS011;16752;53.364;-1.488;2023-11-21T15:26:00;2.30;;;1.40;;
29878;SDS011;16752;53.364;-1.488;2023-11-21T15:28:47;7.32;;;1.40;;
29878;SDS011;16752;53.364;-1.488;2023-11-21T15:31:31;5.25;;;1.27;;
29878;SDS011;16752;53.364;-1.488;2023-11-21T15:34:15;7.38;;;1.45;;
29878;SDS011;16752;53.364;-1.488;2023-11-21T15:36:59;5.88;;;2.40;;
29878;SDS011;16752;53.364;-1.488;2023-11-21T15:39:44;11.60;;;2.10;;
29878;SDS011;16752;53.364;-1.488;2023-11-21T15:42:29;3.17;;;1.50;;
29878;SDS011;16752;53.364;-1.488;2023-11-21T15:45:13;8.35;;;1.60;;
29878;SDS011;16752;53.364;-1.488;2023-11-21T15:47:57;5.13;;;1.45;;
29878;SDS011;16752;53.364;-1.488;2023-11-21T15:50:42;8.57;;;2.55;;
29878;SDS011;16752;53.364;-1.488;2023-11-21T15:53:26;3.78;;;1.40;;
29878;SDS011;16752;53.364;-1.488;2023-11-21T15:56:09;2.53;;;1.70;;
29878;SDS011;16752;53.364;-1.488;2023-11-21T15:58:56;5.65;;;1.60;;
29878;SDS011;16752;53.364;-1.488;2023-11-21T16:01:40;1.83;;;1.33;;
29878;SDS011;16752;53.364;-1.488;2023-11-21T16:04:32;3.80;;;1.20;;
29878;SDS011;16752;53.364;-1.488;2023-11-21T16:07:16;4.25;;;1.35;;
29878;SDS011;16752;53.364;-1.488;2023-11-21T16:10:01;2.83;;;1.45;;
29878;SDS011;16752;53.364;-1.488;2023-11-21T16:12:46;5.75;;;2.00;;
29878;SDS011;16752;53.364;-1.488;2023-11-21T16:15:30;2.38;;;1.58;;
29878;SDS011;16752;53.364;-1.488;2023-11-21T16:18:14;6.75;;;1.85;;
29878;SDS011;16752;53.364;-1.488;2023-11-21T16:20:58;6.10;;;1.70;;
29878;SDS011;16752;53.364;-1.488;2023-11-21T16:23:43;6.70;;;2.03;;
29878;SDS011;16752;53.364;-1.488;2023-11-21T16:26:27;9.93;;;3.33;;
29878;SDS011;16752;53.364;-1.488;2023-11-21T16:29:12;3.95;;;1.85;;
29878;SDS011;16752;53.364;-1.488;2023-11-21T16:31:56;8.18;;;2.10;;